sensor_id;sensor_type;location;lat;lon;timestamp;P1;durP1;ratioP1;P2;durP2;ratioP2
15331;SDS011;7766;51.534;6.722;2023-12-20T00:02:20;22.37;;;12.73;;
15331;SDS011;7766;51.534;6.722;2023-12-20T00:04:46;20.23;;;12.03;;
15331;SDS011;7766;51.534;6.722;2023-12-20T00:07:12;21.17;;;12.33;;
15331;SDS011;7766;51.534;6.722;2023-12-20T00:09:38;20.30;;;12.27;;
15331;SDS011;7766;51.534;6.722;2023-12-20T00:12:04;18.70;;;10.67;;
15331;SDS011;7766;51.534;6.722;2023-12-20T00:14:30;20.80;;;10.63;;
15331;SDS011;7766;51.534;6.722;2023-12-20T00:16:55;20.43;;;10.83;;
15331;SDS011;7766;51.534;6.722;2023-12-20T00:19:21;26.50;;;10.37;;
15331;SDS011;7766;51.534;6.722;2023-12-20T00:21:46;22.07;;;10.83;;
15331;SDS011;7766;51.534;6.722;2023-12-20T00:24:12;16.77;;;9.73;;
15331;SDS011;7766;51.534;6.722;2023-12-20T00:26:38;17.47;;;9.03;;
15331;SDS011;7766;51.534;6.722;2023-12-20T00:29:04;18.90;;;9.97;;
15331;SDS011;7766;51.534;6.722;2023-12-20T00:31:30;19.57;;;10.60;;
15331;SDS011;7766;51.534;6.722;2023-12-20T00:33:56;23.53;;;10.73;;
15331;SDS011;7766;51.534;6.722;2023-12-20T00:36:22;22.70;;;9.97;;
15331;SDS011;7766;51.534;6.722;2023-12-20T00:38:48;17.47;;;8.30;;
15331;SDS011;7766;51.534;6.722;2023-12-20T00:41:14;23.47;;;8.67;;
15331;SDS011;7766;51.534;6.722;2023-12-20T00:43:40;17.87;;;8.80;;
15331;SDS011;7766;51.534;6.722;2023-12-20T00:46:06;14.30;;;8.37;;
15331;SDS011;7766;51.534;6.722;2023-12-20T00:48:31;16.70;;;8.17;;
15331;SDS011;7766;51.534;6.722;2023-12-20T00:50:57;17.63;;;8.27;;
15331;SDS011;7766;51.534;6.722;2023-12-20T00:53:22;20.37;;;8.60;;
15331;SDS011;7766;51.534;6.722;2023-12-20T00:55:48;15.10;;;8.37;;
15331;SDS011;7766;51.534;6.722;2023-12-20T00:58:15;15.97;;;8.87;;
15331;SDS011;7766;51.534;6.722;2023-12-20T01:00:41;12.33;;;7.80;;
15331;SDS011;7766;51.534;6.722;2023-12-20T01:03:26;14.40;;;6.63;;
15331;SDS011;7766;51.534;6.722;2023-12-20T01:05:52;15.13;;;7.53;;
15331;SDS011;7766;51.534;6.722;2023-12-20T01:08:18;13.90;;;7.10;;
15331;SDS011;7766;51.534;6.722;2023-12-20T01:10:44;13.83;;;7.10;;
15331;SDS011;7766;51.534;6.722;2023-12-20T01:13:11;19.63;;;10.07;;
15331;SDS011;7766;51.534;6.722;2023-12-20T01:15:37;17.03;;;7.10;;
15331;SDS011;7766;51.534;6.722;2023-12-20T01:18:03;16.90;;;8.33;;
15331;SDS011;7766;51.534;6.722;2023-12-20T01:20:29;14.80;;;7.17;;
15331;SDS011;7766;51.534;6.722;2023-12-20T01:22:55;16.37;;;7.70;;
15331;SDS011;7766;51.534;6.722;2023-12-20T01:25:21;12.57;;;7.27;;
15331;SDS011;7766;51.534;6.722;2023-12-20T01:27:47;16.67;;;8.03;;
15331;SDS011;7766;51.534;6.722;2023-12-20T01:30:13;15.27;;;7.47;;
15331;SDS011;7766;51.534;6.722;2023-12-20T01:32:39;15.47;;;8.20;;
15331;SDS011;7766;51.534;6.722;2023-12-20T01:35:05;14.07;;;7.87;;
15331;SDS011;7766;51.534;6.722;2023-12-20T01:37:31;19.73;;;6.40;;
15331;SDS011;7766;51.534;6.722;2023-12-20T01:39:56;17.63;;;7.03;;
15331;SDS011;7766;51.534;6.722;2023-12-20T01:42:23;13.03;;;6.43;;
15331;SDS011;7766;51.534;6.722;2023-12-20T01:44:49;16.60;;;6.50;;
15331;SDS011;7766;51.534;6.722;2023-12-20T01:47:15;15.77;;;5.60;;
15331;SDS011;7766;51.534;6.722;2023-12-20T01:49:42;14.53;;;6.40;;
15331;SDS011;7766;51.534;6.722;2023-12-20T01:52:08;16.40;;;5.40;;
15331;SDS011;7766;51.534;6.722;2023-12-20T01:54:34;15.23;;;5.30;;
15331;SDS011;7766;51.534;6.722;2023-12-20T01:57:01;9.63;;;5.50;;
15331;SDS011;7766;51.534;6.722;2023-12-20T01:59:28;14.73;;;5.00;;
15331;SDS011;7766;51.534;6.722;2023-12-20T02:01:54;11.97;;;5.17;;
15331;SDS011;7766;51.534;6.722;2023-12-20T02:04:20;13.13;;;5.63;;
15331;SDS011;7766;51.534;6.722;2023-12-20T02:06:46;16.83;;;5.53;;
15331;SDS011;7766;51.534;6.722;2023-12-20T02:09:12;13.67;;;6.03;;
15331;SDS011;7766;51.534;6.722;2023-12-20T02:11:37;16.17;;;7.27;;
15331;SDS011;7766;51.534;6.722;2023-12-20T02:14:03;16.93;;;6.50;;
15331;SDS011;7766;51.534;6.722;2023-12-20T02:16:29;12.77;;;6.33;;
15331;SDS011;7766;51.534;6.722;2023-12-20T02:18:55;9.70;;;6.50;;
15331;SDS011;7766;51.534;6.722;2023-12-20T02:21:25;14.70;;;6.90;;
15331;SDS011;7766;51.534;6.722;2023-12-20T02:23:56;15.60;;;7.23;;
15331;SDS011;7766;51.534;6.722;2023-12-20T02:26:22;14.23;;;6.93;;
15331;SDS011;7766;51.534;6.722;2023-12-20T02:28:48;18.70;;;7.90;;
15331;SDS011;7766;51.534;6.722;2023-12-20T02:31:13;15.50;;;7.53;;
15331;SDS011;7766;51.534;6.722;2023-12-20T02:33:39;12.37;;;7.50;;
15331;SDS011;7766;51.534;6.722;2023-12-20T02:36:07;16.20;;;7.27;;
15331;SDS011;7766;51.534;6.722;2023-12-20T02:38:33;15.40;;;7.50;;
15331;SDS011;7766;51.534;6.722;2023-12-20T02:40:59;18.20;;;7.77;;
15331;SDS011;7766;51.534;6.722;2023-12-20T02:43:24;17.17;;;6.80;;
15331;SDS011;7766;51.534;6.722;2023-12-20T02:45:50;16.03;;;6.67;;
15331;SDS011;7766;51.534;6.722;2023-12-20T02:48:16;14.23;;;5.93;;
15331;SDS011;7766;51.534;6.722;2023-12-20T02:50:42;15.57;;;7.20;;
15331;SDS011;7766;51.534;6.722;2023-12-20T02:53:08;15.37;;;6.03;;
15331;SDS011;7766;51.534;6.722;2023-12-20T02:55:34;19.87;;;6.00;;
15331;SDS011;7766;51.534;6.722;2023-12-20T02:58:00;19.13;;;5.37;;
15331;SDS011;7766;51.534;6.722;2023-12-20T03:00:25;11.97;;;5.93;;
15331;SDS011;7766;51.534;6.722;2023-12-20T03:02:51;13.53;;;5.03;;
15331;SDS011;7766;51.534;6.722;2023-12-20T03:05:17;14.20;;;4.80;;
15331;SDS011;7766;51.534;6.722;2023-12-20T03:07:42;19.07;;;5.30;;
15331;SDS011;7766;51.534;6.722;2023-12-20T03:10:08;12.10;;;4.43;;
15331;SDS011;7766;51.534;6.722;2023-12-20T03:12:34;11.63;;;4.17;;
15331;SDS011;7766;51.534;6.722;2023-12-20T03:15:00;14.70;;;4.67;;
15331;SDS011;7766;51.534;6.722;2023-12-20T03:17:26;8.13;;;3.27;;
15331;SDS011;7766;51.534;6.722;2023-12-20T03:19:52;11.40;;;3.67;;
15331;SDS011;7766;51.534;6.722;2023-12-20T03:22:17;11.63;;;3.57;;
15331;SDS011;7766;51.534;6.722;2023-12-20T03:24:43;11.33;;;3.10;;
15331;SDS011;7766;51.534;6.722;2023-12-20T03:27:09;9.10;;;2.90;;
15331;SDS011;7766;51.534;6.722;2023-12-20T03:29:35;11.13;;;3.20;;
15331;SDS011;7766;51.534;6.722;2023-12-20T03:32:01;10.37;;;3.47;;
15331;SDS011;7766;51.534;6.722;2023-12-20T03:34:27;11.37;;;2.70;;
15331;SDS011;7766;51.534;6.722;2023-12-20T03:36:54;12.03;;;2.80;;
15331;SDS011;7766;51.534;6.722;2023-12-20T03:39:19;10.73;;;2.97;;
15331;SDS011;7766;51.534;6.722;2023-12-20T03:41:45;10.03;;;4.03;;
15331;SDS011;7766;51.534;6.722;2023-12-20T03:44:11;13.57;;;2.63;;
15331;SDS011;7766;51.534;6.722;2023-12-20T03:46:37;10.37;;;2.57;;
15331;SDS011;7766;51.534;6.722;2023-12-20T03:49:03;13.77;;;2.53;;
15331;SDS011;7766;51.534;6.722;2023-12-20T03:51:28;12.87;;;2.77;;
15331;SDS011;7766;51.534;6.722;2023-12-20T03:53:54;5.70;;;3.00;;
15331;SDS011;7766;51.534;6.722;2023-12-20T03:56:19;11.57;;;2.60;;
15331;SDS011;7766;51.534;6.722;2023-12-20T03:58:45;13.07;;;2.87;;
15331;SDS011;7766;51.534;6.722;2023-12-20T04:01:11;9.57;;;2.50;;
15331;SDS011;7766;51.534;6.722;2023-12-20T04:03:37;11.57;;;2.73;;
15331;SDS011;7766;51.534;6.722;2023-12-20T04:06:03;10.47;;;2.93;;
15331;SDS011;7766;51.534;6.722;2023-12-20T04:08:29;15.07;;;4.77;;
15331;SDS011;7766;51.534;6.722;2023-12-20T04:10:55;10.43;;;2.97;;
15331;SDS011;7766;51.534;6.722;2023-12-20T04:13:20;16.43;;;2.90;;
15331;SDS011;7766;51.534;6.722;2023-12-20T04:15:46;9.60;;;3.13;;
15331;SDS011;7766;51.534;6.722;2023-12-20T04:18:13;14.73;;;3.30;;
15331;SDS011;7766;51.534;6.722;2023-12-20T04:20:38;9.17;;;3.40;;
15331;SDS011;7766;51.534;6.722;2023-12-20T04:23:04;13.10;;;2.87;;
15331;SDS011;7766;51.534;6.722;2023-12-20T04:25:30;6.80;;;2.50;;
15331;SDS011;7766;51.534;6.722;2023-12-20T04:27:56;15.63;;;3.53;;
15331;SDS011;7766;51.534;6.722;2023-12-20T04:30:22;6.73;;;2.30;;
15331;SDS011;7766;51.534;6.722;2023-12-20T04:32:48;7.20;;;3.00;;
15331;SDS011;7766;51.534;6.722;2023-12-20T04:35:14;9.17;;;2.73;;
15331;SDS011;7766;51.534;6.722;2023-12-20T04:37:40;10.80;;;3.13;;
15331;SDS011;7766;51.534;6.722;2023-12-20T04:40:06;17.40;;;3.73;;
15331;SDS011;7766;51.534;6.722;2023-12-20T04:42:33;11.33;;;2.87;;
15331;SDS011;7766;51.534;6.722;2023-12-20T04:44:58;8.27;;;2.87;;
15331;SDS011;7766;51.534;6.722;2023-12-20T04:47:24;11.67;;;2.77;;
15331;SDS011;7766;51.534;6.722;2023-12-20T04:49:50;10.97;;;3.67;;
15331;SDS011;7766;51.534;6.722;2023-12-20T04:52:16;13.77;;;3.00;;
15331;SDS011;7766;51.534;6.722;2023-12-20T04:54:42;14.27;;;4.07;;
15331;SDS011;7766;51.534;6.722;2023-12-20T04:57:08;15.27;;;3.20;;
15331;SDS011;7766;51.534;6.722;2023-12-20T04:59:33;8.77;;;3.50;;
15331;SDS011;7766;51.534;6.722;2023-12-20T05:01:59;17.43;;;3.43;;
15331;SDS011;7766;51.534;6.722;2023-12-20T05:04:25;16.40;;;3.77;;
15331;SDS011;7766;51.534;6.722;2023-12-20T05:06:51;16.37;;;3.87;;
15331;SDS011;7766;51.534;6.722;2023-12-20T05:09:17;11.40;;;2.90;;
15331;SDS011;7766;51.534;6.722;2023-12-20T05:11:43;12.90;;;3.53;;
15331;SDS011;7766;51.534;6.722;2023-12-20T05:14:09;12.23;;;3.43;;
15331;SDS011;7766;51.534;6.722;2023-12-20T05:16:35;12.60;;;4.13;;
15331;SDS011;7766;51.534;6.722;2023-12-20T05:19:01;13.37;;;4.57;;
15331;SDS011;7766;51.534;6.722;2023-12-20T05:21:31;11.13;;;3.63;;
15331;SDS011;7766;51.534;6.722;2023-12-20T05:23:57;15.03;;;3.97;;
15331;SDS011;7766;51.534;6.722;2023-12-20T05:26:22;17.13;;;5.10;;
15331;SDS011;7766;51.534;6.722;2023-12-20T05:28:48;11.00;;;3.80;;
15331;SDS011;7766;51.534;6.722;2023-12-20T05:31:14;8.70;;;3.77;;
15331;SDS011;7766;51.534;6.722;2023-12-20T05:33:40;14.20;;;4.40;;
15331;SDS011;7766;51.534;6.722;2023-12-20T05:36:06;12.50;;;4.30;;
15331;SDS011;7766;51.534;6.722;2023-12-20T05:38:36;11.20;;;4.53;;
15331;SDS011;7766;51.534;6.722;2023-12-20T05:41:02;23.47;;;4.97;;
15331;SDS011;7766;51.534;6.722;2023-12-20T05:43:28;14.23;;;4.57;;
15331;SDS011;7766;51.534;6.722;2023-12-20T05:45:54;14.07;;;4.40;;
15331;SDS011;7766;51.534;6.722;2023-12-20T05:48:20;16.13;;;4.30;;
15331;SDS011;7766;51.534;6.722;2023-12-20T05:50:46;16.60;;;4.53;;
15331;SDS011;7766;51.534;6.722;2023-12-20T05:53:11;14.63;;;5.23;;
15331;SDS011;7766;51.534;6.722;2023-12-20T05:55:37;10.97;;;4.27;;
15331;SDS011;7766;51.534;6.722;2023-12-20T05:58:02;17.63;;;4.10;;
15331;SDS011;7766;51.534;6.722;2023-12-20T06:00:30;13.47;;;4.27;;
15331;SDS011;7766;51.534;6.722;2023-12-20T06:02:55;8.90;;;3.07;;
15331;SDS011;7766;51.534;6.722;2023-12-20T06:05:21;12.00;;;3.87;;
15331;SDS011;7766;51.534;6.722;2023-12-20T06:07:47;20.00;;;5.83;;
15331;SDS011;7766;51.534;6.722;2023-12-20T06:10:14;13.07;;;4.37;;
15331;SDS011;7766;51.534;6.722;2023-12-20T06:12:40;15.13;;;3.73;;
15331;SDS011;7766;51.534;6.722;2023-12-20T06:15:06;14.87;;;4.40;;
15331;SDS011;7766;51.534;6.722;2023-12-20T06:17:33;15.47;;;4.10;;
15331;SDS011;7766;51.534;6.722;2023-12-20T06:19:59;20.70;;;4.33;;
15331;SDS011;7766;51.534;6.722;2023-12-20T06:22:25;9.53;;;3.60;;
15331;SDS011;7766;51.534;6.722;2023-12-20T06:24:51;19.97;;;4.80;;
15331;SDS011;7766;51.534;6.722;2023-12-20T06:27:17;11.77;;;3.67;;
15331;SDS011;7766;51.534;6.722;2023-12-20T06:29:43;14.77;;;4.17;;
15331;SDS011;7766;51.534;6.722;2023-12-20T06:32:10;20.67;;;4.63;;
15331;SDS011;7766;51.534;6.722;2023-12-20T06:34:36;16.50;;;4.80;;
15331;SDS011;7766;51.534;6.722;2023-12-20T06:37:01;11.37;;;4.13;;
15331;SDS011;7766;51.534;6.722;2023-12-20T06:39:27;14.60;;;5.63;;
15331;SDS011;7766;51.534;6.722;2023-12-20T06:41:54;13.40;;;4.57;;
15331;SDS011;7766;51.534;6.722;2023-12-20T06:44:20;14.60;;;5.13;;
15331;SDS011;7766;51.534;6.722;2023-12-20T06:46:46;16.97;;;5.30;;
15331;SDS011;7766;51.534;6.722;2023-12-20T06:49:11;13.03;;;4.70;;
15331;SDS011;7766;51.534;6.722;2023-12-20T06:51:37;14.67;;;5.30;;
15331;SDS011;7766;51.534;6.722;2023-12-20T06:54:03;16.27;;;5.37;;
15331;SDS011;7766;51.534;6.722;2023-12-20T06:56:29;14.53;;;4.77;;
15331;SDS011;7766;51.534;6.722;2023-12-20T06:58:55;15.27;;;5.17;;
15331;SDS011;7766;51.534;6.722;2023-12-20T07:01:21;19.27;;;4.93;;
15331;SDS011;7766;51.534;6.722;2023-12-20T07:03:47;15.40;;;5.37;;
15331;SDS011;7766;51.534;6.722;2023-12-20T07:06:13;13.80;;;4.57;;
15331;SDS011;7766;51.534;6.722;2023-12-20T07:08:41;13.83;;;4.60;;
15331;SDS011;7766;51.534;6.722;2023-12-20T07:11:07;13.07;;;4.53;;
15331;SDS011;7766;51.534;6.722;2023-12-20T07:13:32;19.13;;;4.53;;
15331;SDS011;7766;51.534;6.722;2023-12-20T07:15:58;16.07;;;4.73;;
15331;SDS011;7766;51.534;6.722;2023-12-20T07:18:24;12.10;;;4.13;;
15331;SDS011;7766;51.534;6.722;2023-12-20T07:20:49;14.33;;;5.00;;
15331;SDS011;7766;51.534;6.722;2023-12-20T07:23:15;21.60;;;5.43;;
15331;SDS011;7766;51.534;6.722;2023-12-20T07:25:41;15.90;;;4.33;;
15331;SDS011;7766;51.534;6.722;2023-12-20T07:28:07;14.77;;;4.70;;
15331;SDS011;7766;51.534;6.722;2023-12-20T07:30:33;11.00;;;4.20;;
15331;SDS011;7766;51.534;6.722;2023-12-20T07:32:59;12.63;;;4.40;;
15331;SDS011;7766;51.534;6.722;2023-12-20T07:35:26;14.57;;;4.10;;
15331;SDS011;7766;51.534;6.722;2023-12-20T07:37:52;15.10;;;4.67;;
15331;SDS011;7766;51.534;6.722;2023-12-20T07:40:18;15.03;;;4.63;;
15331;SDS011;7766;51.534;6.722;2023-12-20T07:42:43;15.83;;;4.83;;
15331;SDS011;7766;51.534;6.722;2023-12-20T07:45:09;11.80;;;4.07;;
15331;SDS011;7766;51.534;6.722;2023-12-20T07:47:36;17.37;;;4.50;;
15331;SDS011;7766;51.534;6.722;2023-12-20T07:50:02;12.43;;;3.77;;
15331;SDS011;7766;51.534;6.722;2023-12-20T07:52:28;12.00;;;3.97;;
15331;SDS011;7766;51.534;6.722;2023-12-20T07:54:54;10.27;;;4.00;;
15331;SDS011;7766;51.534;6.722;2023-12-20T07:57:20;12.00;;;4.07;;
15331;SDS011;7766;51.534;6.722;2023-12-20T07:59:46;9.30;;;3.87;;
15331;SDS011;7766;51.534;6.722;2023-12-20T08:02:11;11.07;;;3.83;;
15331;SDS011;7766;51.534;6.722;2023-12-20T08:04:38;11.90;;;4.53;;
15331;SDS011;7766;51.534;6.722;2023-12-20T08:07:05;14.83;;;4.43;;
15331;SDS011;7766;51.534;6.722;2023-12-20T08:09:31;15.87;;;4.23;;
15331;SDS011;7766;51.534;6.722;2023-12-20T08:11:59;16.07;;;3.90;;
15331;SDS011;7766;51.534;6.722;2023-12-20T08:14:24;15.40;;;4.77;;
15331;SDS011;7766;51.534;6.722;2023-12-20T08:16:50;13.60;;;3.77;;
15331;SDS011;7766;51.534;6.722;2023-12-20T08:19:16;13.93;;;6.20;;
15331;SDS011;7766;51.534;6.722;2023-12-20T08:21:42;16.00;;;6.83;;
15331;SDS011;7766;51.534;6.722;2023-12-20T08:24:08;11.00;;;6.27;;
15331;SDS011;7766;51.534;6.722;2023-12-20T08:26:33;15.77;;;6.73;;
15331;SDS011;7766;51.534;6.722;2023-12-20T08:28:59;12.87;;;7.20;;
15331;SDS011;7766;51.534;6.722;2023-12-20T08:31:24;21.67;;;7.83;;
15331;SDS011;7766;51.534;6.722;2023-12-20T08:33:51;15.37;;;6.90;;
15331;SDS011;7766;51.534;6.722;2023-12-20T08:36:18;13.53;;;7.70;;
15331;SDS011;7766;51.534;6.722;2023-12-20T08:38:46;13.73;;;6.37;;
15331;SDS011;7766;51.534;6.722;2023-12-20T08:41:12;14.90;;;6.10;;
15331;SDS011;7766;51.534;6.722;2023-12-20T08:43:38;15.20;;;6.33;;
15331;SDS011;7766;51.534;6.722;2023-12-20T08:46:05;11.23;;;5.80;;
15331;SDS011;7766;51.534;6.722;2023-12-20T08:48:31;12.93;;;7.30;;
15331;SDS011;7766;51.534;6.722;2023-12-20T08:50:56;13.63;;;5.47;;
15331;SDS011;7766;51.534;6.722;2023-12-20T08:53:22;9.60;;;5.30;;
15331;SDS011;7766;51.534;6.722;2023-12-20T08:55:47;13.13;;;5.57;;
15331;SDS011;7766;51.534;6.722;2023-12-20T08:58:13;10.23;;;4.10;;
15331;SDS011;7766;51.534;6.722;2023-12-20T09:00:39;12.07;;;5.37;;
15331;SDS011;7766;51.534;6.722;2023-12-20T09:03:05;14.00;;;5.30;;
15331;SDS011;7766;51.534;6.722;2023-12-20T09:05:31;12.20;;;4.80;;
15331;SDS011;7766;51.534;6.722;2023-12-20T09:07:56;17.43;;;6.07;;
15331;SDS011;7766;51.534;6.722;2023-12-20T09:10:22;10.80;;;4.23;;
15331;SDS011;7766;51.534;6.722;2023-12-20T09:12:51;10.57;;;4.70;;
15331;SDS011;7766;51.534;6.722;2023-12-20T09:15:23;16.60;;;4.97;;
15331;SDS011;7766;51.534;6.722;2023-12-20T09:17:49;13.10;;;5.63;;
15331;SDS011;7766;51.534;6.722;2023-12-20T09:20:14;14.30;;;4.57;;
15331;SDS011;7766;51.534;6.722;2023-12-20T09:22:41;13.20;;;4.40;;
15331;SDS011;7766;51.534;6.722;2023-12-20T09:25:07;9.53;;;4.50;;
15331;SDS011;7766;51.534;6.722;2023-12-20T09:27:33;10.80;;;4.37;;
15331;SDS011;7766;51.534;6.722;2023-12-20T09:29:59;15.97;;;4.60;;
15331;SDS011;7766;51.534;6.722;2023-12-20T09:32:25;15.40;;;4.40;;
15331;SDS011;7766;51.534;6.722;2023-12-20T09:34:50;20.80;;;4.80;;
15331;SDS011;7766;51.534;6.722;2023-12-20T09:37:16;13.00;;;4.27;;
15331;SDS011;7766;51.534;6.722;2023-12-20T09:39:42;10.77;;;4.47;;
15331;SDS011;7766;51.534;6.722;2023-12-20T09:42:08;14.70;;;3.93;;
15331;SDS011;7766;51.534;6.722;2023-12-20T09:44:37;13.97;;;4.30;;
15331;SDS011;7766;51.534;6.722;2023-12-20T09:47:07;13.33;;;4.17;;
15331;SDS011;7766;51.534;6.722;2023-12-20T09:49:33;12.77;;;4.43;;
15331;SDS011;7766;51.534;6.722;2023-12-20T09:52:00;12.70;;;3.93;;
15331;SDS011;7766;51.534;6.722;2023-12-20T09:54:27;18.37;;;4.10;;
15331;SDS011;7766;51.534;6.722;2023-12-20T09:56:54;11.73;;;4.27;;
15331;SDS011;7766;51.534;6.722;2023-12-20T09:59:19;15.47;;;4.23;;
15331;SDS011;7766;51.534;6.722;2023-12-20T10:01:45;14.30;;;4.43;;
15331;SDS011;7766;51.534;6.722;2023-12-20T10:04:11;19.13;;;4.63;;
15331;SDS011;7766;51.534;6.722;2023-12-20T10:06:42;16.00;;;4.70;;
15331;SDS011;7766;51.534;6.722;2023-12-20T10:09:08;12.20;;;4.57;;
15331;SDS011;7766;51.534;6.722;2023-12-20T10:11:35;11.37;;;4.00;;
15331;SDS011;7766;51.534;6.722;2023-12-20T10:14:05;10.47;;;3.87;;
15331;SDS011;7766;51.534;6.722;2023-12-20T10:16:31;16.63;;;4.27;;
15331;SDS011;7766;51.534;6.722;2023-12-20T10:18:58;11.80;;;4.97;;
15331;SDS011;7766;51.534;6.722;2023-12-20T10:21:24;13.03;;;4.37;;
15331;SDS011;7766;51.534;6.722;2023-12-20T10:23:51;11.47;;;4.33;;
15331;SDS011;7766;51.534;6.722;2023-12-20T10:26:24;11.87;;;4.47;;
15331;SDS011;7766;51.534;6.722;2023-12-20T10:28:51;12.40;;;3.93;;
15331;SDS011;7766;51.534;6.722;2023-12-20T10:31:30;13.63;;;4.23;;
15331;SDS011;7766;51.534;6.722;2023-12-20T10:33:57;13.13;;;5.63;;
15331;SDS011;7766;51.534;6.722;2023-12-20T10:36:24;14.53;;;4.70;;
15331;SDS011;7766;51.534;6.722;2023-12-20T10:38:51;15.57;;;5.17;;
15331;SDS011;7766;51.534;6.722;2023-12-20T10:41:19;8.17;;;4.07;;
15331;SDS011;7766;51.534;6.722;2023-12-20T10:44:00;12.43;;;3.97;;
15331;SDS011;7766;51.534;6.722;2023-12-20T10:46:27;9.27;;;4.07;;
15331;SDS011;7766;51.534;6.722;2023-12-20T10:48:55;11.07;;;4.13;;
15331;SDS011;7766;51.534;6.722;2023-12-20T10:51:21;19.67;;;5.10;;
15331;SDS011;7766;51.534;6.722;2023-12-20T10:53:48;11.60;;;3.97;;
15331;SDS011;7766;51.534;6.722;2023-12-20T10:56:16;14.30;;;4.80;;
15331;SDS011;7766;51.534;6.722;2023-12-20T10:58:43;10.60;;;3.70;;
15331;SDS011;7766;51.534;6.722;2023-12-20T11:01:09;11.03;;;4.20;;
15331;SDS011;7766;51.534;6.722;2023-12-20T11:03:36;18.80;;;4.67;;
15331;SDS011;7766;51.534;6.722;2023-12-20T11:06:04;8.90;;;3.50;;
15331;SDS011;7766;51.534;6.722;2023-12-20T11:08:39;12.53;;;4.63;;
15331;SDS011;7766;51.534;6.722;2023-12-20T11:11:40;12.40;;;5.23;;
15331;SDS011;7766;51.534;6.722;2023-12-20T11:14:19;13.07;;;4.37;;
15331;SDS011;7766;51.534;6.722;2023-12-20T11:16:46;13.50;;;4.40;;
15331;SDS011;7766;51.534;6.722;2023-12-20T11:19:11;14.83;;;4.33;;
15331;SDS011;7766;51.534;6.722;2023-12-20T11:21:39;15.53;;;6.50;;
15331;SDS011;7766;51.534;6.722;2023-12-20T11:24:05;15.73;;;5.13;;
15331;SDS011;7766;51.534;6.722;2023-12-20T11:26:31;14.10;;;4.77;;
15331;SDS011;7766;51.534;6.722;2023-12-20T11:31:41;16.50;;;4.90;;
15331;SDS011;7766;51.534;6.722;2023-12-20T11:34:13;11.77;;;3.90;;
15331;SDS011;7766;51.534;6.722;2023-12-20T11:36:42;13.13;;;4.53;;
15331;SDS011;7766;51.534;6.722;2023-12-20T11:39:08;11.63;;;4.17;;
15331;SDS011;7766;51.534;6.722;2023-12-20T11:41:35;17.83;;;4.73;;
15331;SDS011;7766;51.534;6.722;2023-12-20T11:44:01;12.00;;;4.80;;
15331;SDS011;7766;51.534;6.722;2023-12-20T11:46:30;12.60;;;4.63;;
15331;SDS011;7766;51.534;6.722;2023-12-20T11:48:56;10.67;;;4.07;;
15331;SDS011;7766;51.534;6.722;2023-12-20T11:51:22;14.33;;;4.43;;
15331;SDS011;7766;51.534;6.722;2023-12-20T11:53:51;12.63;;;4.47;;
15331;SDS011;7766;51.534;6.722;2023-12-20T11:56:18;12.43;;;4.27;;
15331;SDS011;7766;51.534;6.722;2023-12-20T11:58:44;11.43;;;4.20;;
15331;SDS011;7766;51.534;6.722;2023-12-20T12:01:10;14.80;;;5.07;;
15331;SDS011;7766;51.534;6.722;2023-12-20T12:03:36;11.80;;;4.63;;
15331;SDS011;7766;51.534;6.722;2023-12-20T12:06:02;16.50;;;4.53;;
15331;SDS011;7766;51.534;6.722;2023-12-20T12:08:29;12.53;;;4.20;;
15331;SDS011;7766;51.534;6.722;2023-12-20T12:10:55;10.30;;;4.67;;
15331;SDS011;7766;51.534;6.722;2023-12-20T12:13:21;12.67;;;4.27;;
15331;SDS011;7766;51.534;6.722;2023-12-20T12:15:47;14.77;;;5.17;;
15331;SDS011;7766;51.534;6.722;2023-12-20T12:18:16;15.30;;;5.67;;
15331;SDS011;7766;51.534;6.722;2023-12-20T12:20:42;9.00;;;4.73;;
15331;SDS011;7766;51.534;6.722;2023-12-20T12:23:07;15.53;;;4.80;;
15331;SDS011;7766;51.534;6.722;2023-12-20T12:25:36;13.30;;;6.90;;
15331;SDS011;7766;51.534;6.722;2023-12-20T12:28:02;14.70;;;5.40;;
15331;SDS011;7766;51.534;6.722;2023-12-20T12:30:28;16.70;;;4.93;;
15331;SDS011;7766;51.534;6.722;2023-12-20T12:32:55;10.20;;;3.97;;
15331;SDS011;7766;51.534;6.722;2023-12-20T12:35:22;12.73;;;4.10;;
15331;SDS011;7766;51.534;6.722;2023-12-20T12:37:47;10.13;;;4.57;;
15331;SDS011;7766;51.534;6.722;2023-12-20T12:40:14;12.63;;;4.17;;
15331;SDS011;7766;51.534;6.722;2023-12-20T12:42:41;9.13;;;4.63;;
15331;SDS011;7766;51.534;6.722;2023-12-20T12:45:08;11.17;;;3.97;;
15331;SDS011;7766;51.534;6.722;2023-12-20T12:47:34;9.60;;;3.73;;
15331;SDS011;7766;51.534;6.722;2023-12-20T12:50:00;13.00;;;4.27;;
15331;SDS011;7766;51.534;6.722;2023-12-20T12:52:26;10.80;;;4.50;;
15331;SDS011;7766;51.534;6.722;2023-12-20T12:54:52;9.80;;;3.60;;
15331;SDS011;7766;51.534;6.722;2023-12-20T12:57:18;9.07;;;4.17;;
15331;SDS011;7766;51.534;6.722;2023-12-20T12:59:44;13.93;;;4.13;;
15331;SDS011;7766;51.534;6.722;2023-12-20T13:02:11;11.90;;;3.90;;
15331;SDS011;7766;51.534;6.722;2023-12-20T13:04:38;11.53;;;4.60;;
15331;SDS011;7766;51.534;6.722;2023-12-20T13:07:08;12.90;;;4.30;;
15331;SDS011;7766;51.534;6.722;2023-12-20T13:09:36;10.80;;;4.63;;
15331;SDS011;7766;51.534;6.722;2023-12-20T13:12:02;9.03;;;4.30;;
15331;SDS011;7766;51.534;6.722;2023-12-20T13:14:29;8.40;;;4.43;;
15331;SDS011;7766;51.534;6.722;2023-12-20T13:16:55;11.97;;;4.80;;
15331;SDS011;7766;51.534;6.722;2023-12-20T13:19:21;9.57;;;4.13;;
15331;SDS011;7766;51.534;6.722;2023-12-20T13:21:46;11.77;;;4.93;;
15331;SDS011;7766;51.534;6.722;2023-12-20T13:24:13;12.90;;;4.93;;
15331;SDS011;7766;51.534;6.722;2023-12-20T13:26:39;9.17;;;4.40;;
15331;SDS011;7766;51.534;6.722;2023-12-20T13:29:05;9.63;;;4.90;;
15331;SDS011;7766;51.534;6.722;2023-12-20T13:31:31;11.57;;;5.07;;
15331;SDS011;7766;51.534;6.722;2023-12-20T13:33:57;12.40;;;5.47;;
15331;SDS011;7766;51.534;6.722;2023-12-20T13:36:23;17.10;;;6.13;;
15331;SDS011;7766;51.534;6.722;2023-12-20T13:38:49;11.13;;;5.47;;
15331;SDS011;7766;51.534;6.722;2023-12-20T13:41:15;11.37;;;4.87;;
15331;SDS011;7766;51.534;6.722;2023-12-20T13:43:41;15.00;;;5.13;;
15331;SDS011;7766;51.534;6.722;2023-12-20T13:46:07;9.17;;;5.43;;
15331;SDS011;7766;51.534;6.722;2023-12-20T13:48:33;10.43;;;5.70;;
15331;SDS011;7766;51.534;6.722;2023-12-20T13:50:58;11.33;;;5.07;;
15331;SDS011;7766;51.534;6.722;2023-12-20T13:53:25;11.63;;;4.80;;
15331;SDS011;7766;51.534;6.722;2023-12-20T13:55:50;7.93;;;4.90;;
15331;SDS011;7766;51.534;6.722;2023-12-20T13:58:16;14.93;;;5.47;;
15331;SDS011;7766;51.534;6.722;2023-12-20T14:00:42;16.93;;;5.80;;
15331;SDS011;7766;51.534;6.722;2023-12-20T14:03:08;17.77;;;6.37;;
15331;SDS011;7766;51.534;6.722;2023-12-20T14:05:35;8.77;;;5.87;;
15331;SDS011;7766;51.534;6.722;2023-12-20T14:08:00;10.87;;;5.73;;
15331;SDS011;7766;51.534;6.722;2023-12-20T14:10:26;10.63;;;5.87;;
15331;SDS011;7766;51.534;6.722;2023-12-20T14:12:53;9.97;;;5.80;;
15331;SDS011;7766;51.534;6.722;2023-12-20T14:15:19;10.87;;;4.57;;
15331;SDS011;7766;51.534;6.722;2023-12-20T14:17:44;14.27;;;6.40;;
15331;SDS011;7766;51.534;6.722;2023-12-20T14:20:10;12.13;;;6.30;;
15331;SDS011;7766;51.534;6.722;2023-12-20T14:22:39;18.77;;;7.40;;
15331;SDS011;7766;51.534;6.722;2023-12-20T14:25:12;15.13;;;5.97;;
15331;SDS011;7766;51.534;6.722;2023-12-20T14:27:38;9.50;;;5.53;;
15331;SDS011;7766;51.534;6.722;2023-12-20T14:30:05;19.97;;;7.20;;
15331;SDS011;7766;51.534;6.722;2023-12-20T14:32:31;18.27;;;6.70;;
15331;SDS011;7766;51.534;6.722;2023-12-20T14:34:57;13.73;;;6.07;;
15331;SDS011;7766;51.534;6.722;2023-12-20T14:37:23;14.27;;;5.60;;
15331;SDS011;7766;51.534;6.722;2023-12-20T14:39:49;13.43;;;6.23;;
15331;SDS011;7766;51.534;6.722;2023-12-20T14:42:15;14.67;;;6.20;;
15331;SDS011;7766;51.534;6.722;2023-12-20T14:44:42;14.03;;;6.07;;
15331;SDS011;7766;51.534;6.722;2023-12-20T14:47:07;12.73;;;5.63;;